createdAt,value
2022-12-13T19:37:09.345Z,5.97
2022-12-13T19:39:37.550Z,4.65
2022-12-13T19:42:05.547Z,5.95
2022-12-13T19:44:33.399Z,4.80
2022-12-13T19:47:01.305Z,3.10
2022-12-13T19:49:29.681Z,5.95
2022-12-13T19:51:57.595Z,11.57
2022-12-13T19:54:28.193Z,5.63
2022-12-13T19:56:56.058Z,4.20
2022-12-13T19:59:23.893Z,5.22
2022-12-13T20:01:51.801Z,3.97
2022-12-13T20:04:19.752Z,2.60
2022-12-13T20:06:47.639Z,3.60
2022-12-13T20:09:15.540Z,2.83
2022-12-13T20:11:44.808Z,4.53
2022-12-13T20:14:12.666Z,6.10
2022-12-13T20:16:41.704Z,3.75
2022-12-13T20:19:11.091Z,5.88
2022-12-13T20:21:38.945Z,3.95
2022-12-13T20:24:07.500Z,4.82
2022-12-13T20:26:35.361Z,6.45
2022-12-13T20:29:05.443Z,4.30
2022-12-13T20:31:35.016Z,6.43
2022-12-13T20:34:04.983Z,3.20
2022-12-13T20:36:32.896Z,5.55
2022-12-13T20:39:02.173Z,5.78
2022-12-13T20:41:31.493Z,4.28
2022-12-13T20:44:00.918Z,3.88
2022-12-13T20:46:31.341Z,3.63
2022-12-13T20:49:02.089Z,3.20
2022-12-13T20:51:31.709Z,4.97
2022-12-13T20:53:59.832Z,7.57
2022-12-13T20:56:29.058Z,3.72
2022-12-13T20:58:57.263Z,4.18
2022-12-13T21:01:27.455Z,10.90
2022-12-13T21:04:00.005Z,11.23
2022-12-13T21:06:28.299Z,9.85
2022-12-13T21:09:02.303Z,11.75
2022-12-13T21:11:32.206Z,11.60
2022-12-13T21:14:07.421Z,15.70
2022-12-13T21:16:39.931Z,16.60
2022-12-13T21:19:10.502Z,19.33
2022-12-13T21:21:38.730Z,19.05
2022-12-13T21:24:07.394Z,23.00
2022-12-13T21:26:36.458Z,19.17
2022-12-13T21:29:07.569Z,18.55
2022-12-13T21:31:36.679Z,23.35
2022-12-13T21:34:06.337Z,25.85
2022-12-13T21:36:37.807Z,28.58
2022-12-13T21:39:07.796Z,27.60
2022-12-13T21:41:35.648Z,36.70
2022-12-13T21:44:03.506Z,30.05
2022-12-13T21:47:09.759Z,32.17
2022-12-13T21:49:19.400Z,35.40
2022-12-13T21:51:48.804Z,27.63
2022-12-13T21:54:17.664Z,25.65
2022-12-13T21:57:02.948Z,31.67
2022-12-13T22:02:15.972Z,37.17
2022-12-13T22:04:46.017Z,47.42
2022-12-13T22:07:17.819Z,47.08
2022-12-13T22:09:46.297Z,49.42
2022-12-13T22:12:20.807Z,40.10
2022-12-13T22:14:49.209Z,42.10
2022-12-13T22:17:17.355Z,42.20
2022-12-13T22:19:48.631Z,58.50
2022-12-13T22:22:18.983Z,52.30
2022-12-13T22:24:52.855Z,54.10
2022-12-13T22:27:23.711Z,47.92
2022-12-13T22:29:53.069Z,50.97
2022-12-13T22:32:21.120Z,53.35
2022-12-13T22:34:49.074Z,48.72
2022-12-13T22:37:18.374Z,52.45
2022-12-13T22:39:46.326Z,56.47
2022-12-13T22:42:14.257Z,60.65
2022-12-13T22:44:42.114Z,55.42
2022-12-13T22:47:10.026Z,52.45
2022-12-13T22:49:38.029Z,53.30
2022-12-13T22:52:06.281Z,55.17
2022-12-13T22:54:35.774Z,54.33
2022-12-13T22:57:03.668Z,55.80
2022-12-13T22:59:33.016Z,49.25
2022-12-13T23:02:02.884Z,52.83
2022-12-13T23:04:31.620Z,55.67
2022-12-13T23:06:59.566Z,58.83
2022-12-13T23:09:27.734Z,59.83
2022-12-13T23:12:14.420Z,65.00
2022-12-13T23:14:51.296Z,62.13
2022-12-13T23:17:19.189Z,60.13
2022-12-13T23:19:50.057Z,64.57
2022-12-13T23:22:21.098Z,62.72
2022-12-13T23:24:49.734Z,67.20
2022-12-13T23:27:19.523Z,62.10
2022-12-13T23:29:47.429Z,65.40
2022-12-13T23:32:15.409Z,55.38
2022-12-13T23:34:43.326Z,58.75
2022-12-13T23:37:11.484Z,69.35
2022-12-13T23:39:39.400Z,66.25
2022-12-13T23:42:07.261Z,68.45
2022-12-13T23:44:36.896Z,62.95
